Airfield :
LOGIN :

Register | Disclaimer

   EN    FR    IT 

 










Legend :    VFR   Marginal VFR   IFR   Intensive IFR   Very Intensive IFR
Visi :
Ceiling :
>= 8 km
>= 3000ft
5 to 8 km
1000 to 3000 ft
1500m to 5 km
500 to 1000 ft
800 to 1500m
200 to 500 ft
< 800m
< 200 ft
Symbols :   Thunderstorms  Fog  Heavy snow  Heavy precipitations  Wind > 20 kt
SIGMETs :     Misc.  Thunderstorms  Icing  Turbulence  Mountain Waves  Volcanic Ashes






- Airport Elevation : 1187 ft


LIBV - Gioia del Colle Bari

CURRENT METAR :
  • 281755Z 16007KT CAVOK 21/00 Q1004

EXPIRED METARs :
  • 281655Z 14008KT CAVOK 23/01 Q1005 RMK FEW FEW060 VIS MIN 9999 WIND THR32 16009KT WIND THR14 16009KT BLU
  • 281555Z 15013KT CAVOK 24/00 Q1005 RMK FEW FEW180 VIS MIN 9999 WIND THR32 17010KT WIND THR14 17012KT BLU

TAF TAF LIBV
Valid from the 28 at 18:00 until the 29 at 03:00 UTC


281700Z 2818/2903 16015KT CAVOK
BECMG 2900/2902 5000 BR SCT008 BKN020



MET'MAP, your aeronautical weather chart ! - Copyright ORBIFLY December 2007 - Disclaimer

ORBIFLY MET'MAP TEAM :

Programming & Development : Alexandra Zaïnal
Original concept : Baudouin d'Aumeries
Technical & hardware support : Manuel Goepfert
Assistance : Marc-Olivier Méhu

Contact : metmap@orbifly.com




SOURCES & CREDITS :

   NOAA